sensor_id;sensor_type;location;lat;lon;timestamp;P1;durP1;ratioP1;P2;durP2;ratioP2
35576;SDS011;21680;52.400;16.920;2023-02-22T00:02:10;36.00;;;6.60;;
35576;SDS011;21680;52.400;16.920;2023-02-22T00:04:37;48.80;;;7.90;;
35576;SDS011;21680;52.400;16.920;2023-02-22T00:07:03;39.70;;;6.10;;
35576;SDS011;21680;52.400;16.920;2023-02-22T00:09:29;40.80;;;7.50;;
35576;SDS011;21680;52.400;16.920;2023-02-22T00:11:55;54.30;;;8.10;;
35576;SDS011;21680;52.400;16.920;2023-02-22T00:14:20;31.70;;;6.70;;
35576;SDS011;21680;52.400;16.920;2023-02-22T00:16:45;38.90;;;7.30;;
35576;SDS011;21680;52.400;16.920;2023-02-22T00:19:11;40.20;;;7.20;;
35576;SDS011;21680;52.400;16.920;2023-02-22T00:21:36;39.10;;;6.90;;
35576;SDS011;21680;52.400;16.920;2023-02-22T00:24:02;40.10;;;8.40;;
35576;SDS011;21680;52.400;16.920;2023-02-22T00:26:46;51.80;;;9.60;;
35576;SDS011;21680;52.400;16.920;2023-02-22T00:29:12;32.30;;;6.70;;
35576;SDS011;21680;52.400;16.920;2023-02-22T00:31:37;43.40;;;9.00;;
35576;SDS011;21680;52.400;16.920;2023-02-22T00:34:03;43.00;;;8.50;;
35576;SDS011;21680;52.400;16.920;2023-02-22T00:36:29;45.00;;;8.30;;
35576;SDS011;21680;52.400;16.920;2023-02-22T00:38:54;34.40;;;6.80;;
35576;SDS011;21680;52.400;16.920;2023-02-22T00:41:19;33.50;;;7.30;;
35576;SDS011;21680;52.400;16.920;2023-02-22T00:43:45;49.10;;;8.00;;
35576;SDS011;21680;52.400;16.920;2023-02-22T00:46:13;37.10;;;7.80;;
35576;SDS011;21680;52.400;16.920;2023-02-22T00:48:38;46.90;;;7.50;;
35576;SDS011;21680;52.400;16.920;2023-02-22T00:51:04;41.10;;;7.60;;
35576;SDS011;21680;52.400;16.920;2023-02-22T00:53:29;42.90;;;7.30;;
35576;SDS011;21680;52.400;16.920;2023-02-22T00:55:55;36.60;;;7.10;;
35576;SDS011;21680;52.400;16.920;2023-02-22T00:58:20;48.90;;;7.20;;
35576;SDS011;21680;52.400;16.920;2023-02-22T01:00:46;40.50;;;7.10;;
35576;SDS011;21680;52.400;16.920;2023-02-22T01:03:13;35.40;;;6.10;;
35576;SDS011;21680;52.400;16.920;2023-02-22T01:05:39;44.10;;;7.50;;
35576;SDS011;21680;52.400;16.920;2023-02-22T01:08:06;44.40;;;7.60;;
35576;SDS011;21680;52.400;16.920;2023-02-22T01:10:33;35.60;;;6.80;;
35576;SDS011;21680;52.400;16.920;2023-02-22T01:13:00;30.70;;;5.60;;
35576;SDS011;21680;52.400;16.920;2023-02-22T01:15:28;39.30;;;7.30;;
35576;SDS011;21680;52.400;16.920;2023-02-22T01:17:55;38.20;;;6.30;;
35576;SDS011;21680;52.400;16.920;2023-02-22T01:20:22;26.80;;;6.10;;
35576;SDS011;21680;52.400;16.920;2023-02-22T01:22:50;41.80;;;6.80;;
35576;SDS011;21680;52.400;16.920;2023-02-22T01:25:18;37.40;;;5.90;;
35576;SDS011;21680;52.400;16.920;2023-02-22T01:27:45;46.80;;;7.70;;
35576;SDS011;21680;52.400;16.920;2023-02-22T01:30:12;36.90;;;5.70;;
35576;SDS011;21680;52.400;16.920;2023-02-22T01:32:39;37.50;;;5.50;;
35576;SDS011;21680;52.400;16.920;2023-02-22T01:35:06;38.20;;;7.00;;
35576;SDS011;21680;52.400;16.920;2023-02-22T01:37:34;33.70;;;6.30;;
35576;SDS011;21680;52.400;16.920;2023-02-22T01:40:00;41.20;;;7.00;;
35576;SDS011;21680;52.400;16.920;2023-02-22T01:42:26;44.60;;;6.60;;
35576;SDS011;21680;52.400;16.920;2023-02-22T01:48:11;43.80;;;8.80;;
35576;SDS011;21680;52.400;16.920;2023-02-22T01:50:41;53.70;;;7.00;;
35576;SDS011;21680;52.400;16.920;2023-02-22T01:55:38;44.00;;;8.20;;
35576;SDS011;21680;52.400;16.920;2023-02-22T01:58:04;34.30;;;7.80;;
35576;SDS011;21680;52.400;16.920;2023-02-22T02:00:31;45.80;;;6.10;;
35576;SDS011;21680;52.400;16.920;2023-02-22T02:03:01;48.40;;;6.20;;
35576;SDS011;21680;52.400;16.920;2023-02-22T02:05:30;39.90;;;5.80;;
35576;SDS011;21680;52.400;16.920;2023-02-22T02:07:58;47.70;;;7.40;;
35576;SDS011;21680;52.400;16.920;2023-02-22T02:10:29;36.20;;;7.30;;
35576;SDS011;21680;52.400;16.920;2023-02-22T02:12:56;45.10;;;7.40;;
35576;SDS011;21680;52.400;16.920;2023-02-22T02:15:26;47.20;;;6.40;;
35576;SDS011;21680;52.400;16.920;2023-02-22T02:17:55;36.70;;;6.50;;
35576;SDS011;21680;52.400;16.920;2023-02-22T02:34:47;45.60;;;6.90;;
35576;SDS011;21680;52.400;16.920;2023-02-22T02:45:29;38.40;;;7.00;;
35576;SDS011;21680;52.400;16.920;2023-02-22T02:48:01;37.00;;;5.60;;
35576;SDS011;21680;52.400;16.920;2023-02-22T02:50:36;32.40;;;7.70;;
35576;SDS011;21680;52.400;16.920;2023-02-22T02:53:07;29.30;;;5.80;;
35576;SDS011;21680;52.400;16.920;2023-02-22T02:55:35;39.40;;;6.80;;
35576;SDS011;21680;52.400;16.920;2023-02-22T02:58:05;36.00;;;6.50;;
35576;SDS011;21680;52.400;16.920;2023-02-22T03:00:32;28.00;;;6.10;;
35576;SDS011;21680;52.400;16.920;2023-02-22T03:03:06;35.30;;;8.50;;
35576;SDS011;21680;52.400;16.920;2023-02-22T03:05:49;29.90;;;5.10;;
35576;SDS011;21680;52.400;16.920;2023-02-22T03:08:40;33.70;;;6.00;;
35576;SDS011;21680;52.400;16.920;2023-02-22T03:11:10;53.60;;;7.60;;
35576;SDS011;21680;52.400;16.920;2023-02-22T03:17:00;34.30;;;6.60;;
35576;SDS011;21680;52.400;16.920;2023-02-22T03:19:31;47.40;;;8.00;;
35576;SDS011;21680;52.400;16.920;2023-02-22T03:22:16;41.90;;;6.80;;
35576;SDS011;21680;52.400;16.920;2023-02-22T03:25:34;39.00;;;7.30;;
35576;SDS011;21680;52.400;16.920;2023-02-22T03:30:09;39.10;;;6.00;;
35576;SDS011;21680;52.400;16.920;2023-02-22T03:32:43;36.30;;;6.30;;
35576;SDS011;21680;52.400;16.920;2023-02-22T03:35:17;29.20;;;5.70;;
35576;SDS011;21680;52.400;16.920;2023-02-22T03:37:48;37.90;;;7.00;;
35576;SDS011;21680;52.400;16.920;2023-02-22T03:40:20;36.10;;;6.30;;
35576;SDS011;21680;52.400;16.920;2023-02-22T03:42:55;43.30;;;6.20;;
35576;SDS011;21680;52.400;16.920;2023-02-22T03:45:23;27.70;;;5.30;;
35576;SDS011;21680;52.400;16.920;2023-02-22T03:47:52;32.90;;;6.90;;
35576;SDS011;21680;52.400;16.920;2023-02-22T03:50:28;45.80;;;7.20;;
35576;SDS011;21680;52.400;16.920;2023-02-22T03:52:59;39.20;;;7.90;;
35576;SDS011;21680;52.400;16.920;2023-02-22T03:55:25;48.20;;;8.30;;
35576;SDS011;21680;52.400;16.920;2023-02-22T03:57:56;44.90;;;8.40;;
35576;SDS011;21680;52.400;16.920;2023-02-22T04:00:25;38.60;;;6.80;;
35576;SDS011;21680;52.400;16.920;2023-02-22T04:02:54;34.10;;;6.30;;
35576;SDS011;21680;52.400;16.920;2023-02-22T04:05:21;32.20;;;7.60;;
35576;SDS011;21680;52.400;16.920;2023-02-22T04:07:49;43.90;;;7.00;;
35576;SDS011;21680;52.400;16.920;2023-02-22T04:10:19;31.80;;;7.00;;
35576;SDS011;21680;52.400;16.920;2023-02-22T04:12:44;37.60;;;7.30;;
35576;SDS011;21680;52.400;16.920;2023-02-22T04:15:11;35.20;;;6.00;;
35576;SDS011;21680;52.400;16.920;2023-02-22T04:17:39;33.80;;;6.20;;
35576;SDS011;21680;52.400;16.920;2023-02-22T04:20:05;43.30;;;7.20;;
35576;SDS011;21680;52.400;16.920;2023-02-22T04:22:31;37.80;;;6.60;;
35576;SDS011;21680;52.400;16.920;2023-02-22T04:24:57;36.50;;;6.10;;
35576;SDS011;21680;52.400;16.920;2023-02-22T04:27:22;37.70;;;7.60;;
35576;SDS011;21680;52.400;16.920;2023-02-22T04:29:47;47.10;;;7.90;;
35576;SDS011;21680;52.400;16.920;2023-02-22T04:32:13;44.10;;;7.80;;
35576;SDS011;21680;52.400;16.920;2023-02-22T04:34:39;28.60;;;8.10;;
35576;SDS011;21680;52.400;16.920;2023-02-22T04:37:04;33.10;;;7.40;;
35576;SDS011;21680;52.400;16.920;2023-02-22T04:39:32;43.60;;;7.20;;
35576;SDS011;21680;52.400;16.920;2023-02-22T04:41:57;30.90;;;6.50;;
35576;SDS011;21680;52.400;16.920;2023-02-22T04:44:23;39.10;;;6.90;;
35576;SDS011;21680;52.400;16.920;2023-02-22T04:46:48;34.90;;;6.80;;
35576;SDS011;21680;52.400;16.920;2023-02-22T04:49:17;44.10;;;8.30;;
35576;SDS011;21680;52.400;16.920;2023-02-22T04:51:43;34.90;;;8.00;;
35576;SDS011;21680;52.400;16.920;2023-02-22T04:54:08;36.40;;;7.40;;
35576;SDS011;21680;52.400;16.920;2023-02-22T04:56:34;36.30;;;6.90;;
35576;SDS011;21680;52.400;16.920;2023-02-22T04:59:00;49.90;;;7.40;;
35576;SDS011;21680;52.400;16.920;2023-02-22T05:01:29;43.80;;;7.50;;
35576;SDS011;21680;52.400;16.920;2023-02-22T05:03:58;62.70;;;8.60;;
35576;SDS011;21680;52.400;16.920;2023-02-22T05:06:25;49.40;;;7.60;;
35576;SDS011;21680;52.400;16.920;2023-02-22T05:08:50;34.70;;;7.90;;
35576;SDS011;21680;52.400;16.920;2023-02-22T05:11:17;41.80;;;8.50;;
35576;SDS011;21680;52.400;16.920;2023-02-22T05:13:42;29.90;;;7.40;;
35576;SDS011;21680;52.400;16.920;2023-02-22T05:16:08;43.90;;;7.80;;
35576;SDS011;21680;52.400;16.920;2023-02-22T05:18:33;40.70;;;8.00;;
35576;SDS011;21680;52.400;16.920;2023-02-22T05:20:58;31.40;;;6.80;;
35576;SDS011;21680;52.400;16.920;2023-02-22T05:23:23;44.50;;;8.20;;
35576;SDS011;21680;52.400;16.920;2023-02-22T05:25:49;44.70;;;7.50;;
35576;SDS011;21680;52.400;16.920;2023-02-22T05:28:15;40.80;;;8.40;;
35576;SDS011;21680;52.400;16.920;2023-02-22T05:30:40;41.20;;;7.20;;
35576;SDS011;21680;52.400;16.920;2023-02-22T05:33:06;43.10;;;8.40;;
35576;SDS011;21680;52.400;16.920;2023-02-22T05:35:33;34.60;;;7.40;;
35576;SDS011;21680;52.400;16.920;2023-02-22T05:37:58;47.00;;;8.90;;
35576;SDS011;21680;52.400;16.920;2023-02-22T05:40:26;53.80;;;9.30;;
35576;SDS011;21680;52.400;16.920;2023-02-22T05:42:53;64.80;;;13.70;;
35576;SDS011;21680;52.400;16.920;2023-02-22T05:45:20;41.10;;;10.00;;
35576;SDS011;21680;52.400;16.920;2023-02-22T05:47:47;44.60;;;9.50;;
35576;SDS011;21680;52.400;16.920;2023-02-22T05:50:14;47.80;;;10.00;;
35576;SDS011;21680;52.400;16.920;2023-02-22T05:52:40;40.60;;;10.00;;
35576;SDS011;21680;52.400;16.920;2023-02-22T05:55:06;43.00;;;7.90;;
35576;SDS011;21680;52.400;16.920;2023-02-22T05:57:33;39.80;;;8.60;;
35576;SDS011;21680;52.400;16.920;2023-02-22T05:59:59;47.50;;;8.00;;
35576;SDS011;21680;52.400;16.920;2023-02-22T06:02:25;53.30;;;9.80;;
35576;SDS011;21680;52.400;16.920;2023-02-22T06:04:50;35.70;;;9.50;;
35576;SDS011;21680;52.400;16.920;2023-02-22T06:07:15;40.50;;;7.80;;
35576;SDS011;21680;52.400;16.920;2023-02-22T06:09:41;47.10;;;7.90;;
35576;SDS011;21680;52.400;16.920;2023-02-22T06:12:07;41.60;;;8.20;;
35576;SDS011;21680;52.400;16.920;2023-02-22T06:14:33;50.10;;;9.00;;
35576;SDS011;21680;52.400;16.920;2023-02-22T06:16:58;46.30;;;8.90;;
35576;SDS011;21680;52.400;16.920;2023-02-22T06:19:24;48.00;;;10.00;;
35576;SDS011;21680;52.400;16.920;2023-02-22T06:21:51;65.70;;;14.10;;
35576;SDS011;21680;52.400;16.920;2023-02-22T06:24:18;78.40;;;16.40;;
35576;SDS011;21680;52.400;16.920;2023-02-22T06:26:44;93.00;;;18.70;;
35576;SDS011;21680;52.400;16.920;2023-02-22T06:29:10;109.10;;;22.30;;
35576;SDS011;21680;52.400;16.920;2023-02-22T06:31:35;100.10;;;20.20;;
35576;SDS011;21680;52.400;16.920;2023-02-22T06:34:01;97.00;;;20.20;;
35576;SDS011;21680;52.400;16.920;2023-02-22T06:36:27;117.20;;;24.40;;
35576;SDS011;21680;52.400;16.920;2023-02-22T06:38:54;120.80;;;25.20;;
35576;SDS011;21680;52.400;16.920;2023-02-22T06:41:20;171.40;;;32.70;;
35576;SDS011;21680;52.400;16.920;2023-02-22T06:43:46;206.40;;;35.90;;
35576;SDS011;21680;52.400;16.920;2023-02-22T06:46:11;208.10;;;41.80;;
35576;SDS011;21680;52.400;16.920;2023-02-22T06:48:37;242.80;;;43.60;;
35576;SDS011;21680;52.400;16.920;2023-02-22T06:51:08;253.30;;;48.50;;
35576;SDS011;21680;52.400;16.920;2023-02-22T06:53:34;234.00;;;44.90;;
35576;SDS011;21680;52.400;16.920;2023-02-22T06:56:00;233.90;;;44.40;;
35576;SDS011;21680;52.400;16.920;2023-02-22T06:58:27;203.70;;;39.20;;
35576;SDS011;21680;52.400;16.920;2023-02-22T07:00:52;137.50;;;28.20;;
35576;SDS011;21680;52.400;16.920;2023-02-22T07:03:18;84.80;;;18.20;;
35576;SDS011;21680;52.400;16.920;2023-02-22T07:05:43;51.50;;;13.90;;
35576;SDS011;21680;52.400;16.920;2023-02-22T07:08:09;45.60;;;12.80;;
35576;SDS011;21680;52.400;16.920;2023-02-22T07:10:35;45.40;;;12.30;;
35576;SDS011;21680;52.400;16.920;2023-02-22T07:13:02;51.20;;;13.40;;
35576;SDS011;21680;52.400;16.920;2023-02-22T07:15:31;48.20;;;12.40;;
35576;SDS011;21680;52.400;16.920;2023-02-22T07:17:58;63.80;;;14.50;;
35576;SDS011;21680;52.400;16.920;2023-02-22T07:20:25;54.00;;;13.50;;
35576;SDS011;21680;52.400;16.920;2023-02-22T07:22:52;61.20;;;13.10;;
35576;SDS011;21680;52.400;16.920;2023-02-22T07:25:17;40.90;;;13.10;;
35576;SDS011;21680;52.400;16.920;2023-02-22T07:27:44;60.70;;;14.40;;
35576;SDS011;21680;52.400;16.920;2023-02-22T07:30:22;58.20;;;13.60;;
35576;SDS011;21680;52.400;16.920;2023-02-22T07:32:55;56.50;;;14.30;;
35576;SDS011;21680;52.400;16.920;2023-02-22T07:35:23;65.40;;;14.80;;
35576;SDS011;21680;52.400;16.920;2023-02-22T07:37:51;56.70;;;14.90;;
35576;SDS011;21680;52.400;16.920;2023-02-22T07:40:16;55.10;;;14.10;;
35576;SDS011;21680;52.400;16.920;2023-02-22T07:42:53;41.30;;;12.80;;
35576;SDS011;21680;52.400;16.920;2023-02-22T07:45:19;62.20;;;13.10;;
35576;SDS011;21680;52.400;16.920;2023-02-22T07:47:45;51.50;;;12.90;;
35576;SDS011;21680;52.400;16.920;2023-02-22T07:50:15;38.10;;;10.50;;
35576;SDS011;21680;52.400;16.920;2023-02-22T07:52:48;56.20;;;12.40;;
35576;SDS011;21680;52.400;16.920;2023-02-22T07:55:16;41.70;;;10.00;;
35576;SDS011;21680;52.400;16.920;2023-02-22T07:57:46;46.00;;;11.00;;
35576;SDS011;21680;52.400;16.920;2023-02-22T08:00:14;46.10;;;11.50;;
35576;SDS011;21680;52.400;16.920;2023-02-22T08:02:41;42.40;;;11.70;;
35576;SDS011;21680;52.400;16.920;2023-02-22T08:05:08;50.30;;;14.90;;
35576;SDS011;21680;52.400;16.920;2023-02-22T08:07:35;45.30;;;11.70;;
35576;SDS011;21680;52.400;16.920;2023-02-22T08:10:02;46.70;;;13.40;;
35576;SDS011;21680;52.400;16.920;2023-02-22T08:12:31;47.80;;;14.90;;
35576;SDS011;21680;52.400;16.920;2023-02-22T08:14:56;45.60;;;14.70;;
35576;SDS011;21680;52.400;16.920;2023-02-22T08:17:22;53.00;;;16.10;;
35576;SDS011;21680;52.400;16.920;2023-02-22T08:19:47;48.90;;;15.40;;
35576;SDS011;21680;52.400;16.920;2023-02-22T08:22:12;55.50;;;14.80;;
35576;SDS011;21680;52.400;16.920;2023-02-22T08:24:37;43.70;;;15.40;;
35576;SDS011;21680;52.400;16.920;2023-02-22T08:27:03;52.80;;;14.20;;
35576;SDS011;21680;52.400;16.920;2023-02-22T08:29:31;40.00;;;13.40;;
35576;SDS011;21680;52.400;16.920;2023-02-22T08:32:00;34.60;;;12.50;;
35576;SDS011;21680;52.400;16.920;2023-02-22T08:34:25;46.10;;;13.40;;
35576;SDS011;21680;52.400;16.920;2023-02-22T08:36:51;35.40;;;12.30;;
35576;SDS011;21680;52.400;16.920;2023-02-22T08:39:17;40.80;;;11.80;;
35576;SDS011;21680;52.400;16.920;2023-02-22T08:41:42;36.40;;;10.80;;
35576;SDS011;21680;52.400;16.920;2023-02-22T08:44:08;38.20;;;11.90;;
35576;SDS011;21680;52.400;16.920;2023-02-22T08:46:33;42.60;;;13.10;;
35576;SDS011;21680;52.400;16.920;2023-02-22T08:48:58;39.50;;;13.10;;
35576;SDS011;21680;52.400;16.920;2023-02-22T08:51:24;36.20;;;12.60;;
35576;SDS011;21680;52.400;16.920;2023-02-22T08:53:50;32.40;;;10.10;;
35576;SDS011;21680;52.400;16.920;2023-02-22T08:56:16;26.60;;;9.40;;
35576;SDS011;21680;52.400;16.920;2023-02-22T08:58:41;26.20;;;9.60;;
35576;SDS011;21680;52.400;16.920;2023-02-22T09:01:06;37.40;;;12.50;;
35576;SDS011;21680;52.400;16.920;2023-02-22T09:03:31;33.60;;;11.50;;
35576;SDS011;21680;52.400;16.920;2023-02-22T09:05:57;36.50;;;11.20;;
35576;SDS011;21680;52.400;16.920;2023-02-22T09:08:23;31.80;;;12.10;;
35576;SDS011;21680;52.400;16.920;2023-02-22T09:10:49;34.10;;;11.40;;
35576;SDS011;21680;52.400;16.920;2023-02-22T09:13:15;31.30;;;12.60;;
35576;SDS011;21680;52.400;16.920;2023-02-22T09:15:40;38.90;;;13.70;;
35576;SDS011;21680;52.400;16.920;2023-02-22T09:18:07;40.70;;;14.20;;
35576;SDS011;21680;52.400;16.920;2023-02-22T09:20:35;34.60;;;14.00;;
35576;SDS011;21680;52.400;16.920;2023-02-22T09:23:01;39.70;;;17.00;;
35576;SDS011;21680;52.400;16.920;2023-02-22T09:25:29;34.00;;;16.80;;
35576;SDS011;21680;52.400;16.920;2023-02-22T09:27:55;40.00;;;15.60;;
35576;SDS011;21680;52.400;16.920;2023-02-22T09:30:26;37.20;;;14.60;;
35576;SDS011;21680;52.400;16.920;2023-02-22T09:32:57;25.60;;;11.60;;
35576;SDS011;21680;52.400;16.920;2023-02-22T09:35:27;27.50;;;11.60;;
35576;SDS011;21680;52.400;16.920;2023-02-22T09:37:54;32.70;;;11.80;;
35576;SDS011;21680;52.400;16.920;2023-02-22T09:40:20;28.60;;;12.10;;
35576;SDS011;21680;52.400;16.920;2023-02-22T09:48:39;35.70;;;11.40;;
35576;SDS011;21680;52.400;16.920;2023-02-22T09:51:22;24.80;;;11.20;;
35576;SDS011;21680;52.400;16.920;2023-02-22T09:53:52;24.30;;;10.00;;
35576;SDS011;21680;52.400;16.920;2023-02-22T09:56:21;34.70;;;12.60;;
35576;SDS011;21680;52.400;16.920;2023-02-22T09:58:52;27.40;;;11.50;;
35576;SDS011;21680;52.400;16.920;2023-02-22T10:01:31;26.90;;;10.80;;
35576;SDS011;21680;52.400;16.920;2023-02-22T10:04:10;28.90;;;11.00;;
35576;SDS011;21680;52.400;16.920;2023-02-22T10:09:30;28.80;;;11.00;;
35576;SDS011;21680;52.400;16.920;2023-02-22T10:12:07;28.90;;;11.30;;
35576;SDS011;21680;52.400;16.920;2023-02-22T10:14:41;25.50;;;11.20;;
35576;SDS011;21680;52.400;16.920;2023-02-22T10:17:17;26.70;;;11.60;;
35576;SDS011;21680;52.400;16.920;2023-02-22T10:19:59;30.10;;;11.50;;
35576;SDS011;21680;52.400;16.920;2023-02-22T10:22:43;25.30;;;10.40;;
35576;SDS011;21680;52.400;16.920;2023-02-22T10:25:21;25.10;;;10.80;;
35576;SDS011;21680;52.400;16.920;2023-02-22T10:27:57;30.90;;;10.00;;
35576;SDS011;21680;52.400;16.920;2023-02-22T10:30:34;23.80;;;9.80;;
35576;SDS011;21680;52.400;16.920;2023-02-22T10:33:23;23.00;;;10.00;;
35576;SDS011;21680;52.400;16.920;2023-02-22T10:35:53;24.30;;;10.10;;
35576;SDS011;21680;52.400;16.920;2023-02-22T10:38:22;26.60;;;9.90;;
35576;SDS011;21680;52.400;16.920;2023-02-22T10:43:41;29.30;;;10.40;;
35576;SDS011;21680;52.400;16.920;2023-02-22T10:46:09;22.60;;;9.50;;
35576;SDS011;21680;52.400;16.920;2023-02-22T10:48:38;23.40;;;8.50;;
35576;SDS011;21680;52.400;16.920;2023-02-22T10:51:06;19.90;;;9.20;;
35576;SDS011;21680;52.400;16.920;2023-02-22T10:53:33;28.70;;;10.70;;
35576;SDS011;21680;52.400;16.920;2023-02-22T10:58:58;25.70;;;8.60;;
35576;SDS011;21680;52.400;16.920;2023-02-22T11:03:55;30.60;;;10.80;;
35576;SDS011;21680;52.400;16.920;2023-02-22T11:06:22;21.80;;;10.30;;
35576;SDS011;21680;52.400;16.920;2023-02-22T11:08:48;22.80;;;9.70;;
35576;SDS011;21680;52.400;16.920;2023-02-22T11:11:20;35.90;;;10.20;;
35576;SDS011;21680;52.400;16.920;2023-02-22T11:13:57;27.40;;;9.00;;
35576;SDS011;21680;52.400;16.920;2023-02-22T11:16:26;29.60;;;10.20;;
35576;SDS011;21680;52.400;16.920;2023-02-22T11:19:05;25.00;;;9.60;;
35576;SDS011;21680;52.400;16.920;2023-02-22T11:21:36;25.20;;;10.50;;
35576;SDS011;21680;52.400;16.920;2023-02-22T11:24:07;27.30;;;9.60;;
35576;SDS011;21680;52.400;16.920;2023-02-22T11:26:57;24.00;;;10.80;;
35576;SDS011;21680;52.400;16.920;2023-02-22T11:29:31;26.90;;;10.60;;
35576;SDS011;21680;52.400;16.920;2023-02-22T11:32:16;21.60;;;10.00;;
35576;SDS011;21680;52.400;16.920;2023-02-22T11:34:46;22.90;;;9.80;;
35576;SDS011;21680;52.400;16.920;2023-02-22T11:37:18;21.20;;;8.90;;
35576;SDS011;21680;52.400;16.920;2023-02-22T11:40:09;19.10;;;9.00;;
35576;SDS011;21680;52.400;16.920;2023-02-22T11:42:41;23.70;;;9.00;;
35576;SDS011;21680;52.400;16.920;2023-02-22T11:45:08;21.00;;;9.60;;
35576;SDS011;21680;52.400;16.920;2023-02-22T11:48:17;22.00;;;9.00;;
35576;SDS011;21680;52.400;16.920;2023-02-22T11:50:30;34.20;;;10.20;;
35576;SDS011;21680;52.400;16.920;2023-02-22T11:56:35;25.70;;;7.90;;
35576;SDS011;21680;52.400;16.920;2023-02-22T12:13:33;20.20;;;8.20;;
35576;SDS011;21680;52.400;16.920;2023-02-22T12:16:34;18.70;;;7.40;;
35576;SDS011;21680;52.400;16.920;2023-02-22T12:22:02;28.00;;;8.30;;
35576;SDS011;21680;52.400;16.920;2023-02-22T12:24:37;20.60;;;7.80;;
35576;SDS011;21680;52.400;16.920;2023-02-22T12:27:08;20.30;;;9.10;;
35576;SDS011;21680;52.400;16.920;2023-02-22T12:29:43;16.30;;;7.10;;
35576;SDS011;21680;52.400;16.920;2023-02-22T12:32:14;18.20;;;8.30;;
35576;SDS011;21680;52.400;16.920;2023-02-22T12:34:51;20.60;;;7.80;;
35576;SDS011;21680;52.400;16.920;2023-02-22T12:37:25;29.70;;;11.10;;
35576;SDS011;21680;52.400;16.920;2023-02-22T12:39:58;24.80;;;9.60;;
35576;SDS011;21680;52.400;16.920;2023-02-22T12:50:42;22.20;;;7.80;;
35576;SDS011;21680;52.400;16.920;2023-02-22T12:55:46;21.20;;;7.10;;
35576;SDS011;21680;52.400;16.920;2023-02-22T13:01:05;20.70;;;5.80;;
35576;SDS011;21680;52.400;16.920;2023-02-22T13:03:41;20.60;;;5.90;;
35576;SDS011;21680;52.400;16.920;2023-02-22T13:08:36;15.30;;;5.40;;
35576;SDS011;21680;52.400;16.920;2023-02-22T13:17:11;14.50;;;5.30;;
35576;SDS011;21680;52.400;16.920;2023-02-22T13:19:57;17.80;;;6.00;;
35576;SDS011;21680;52.400;16.920;2023-02-22T13:28:18;13.90;;;5.00;;
35576;SDS011;21680;52.400;16.920;2023-02-22T13:33:49;12.00;;;4.90;;
35576;SDS011;21680;52.400;16.920;2023-02-22T13:50:50;11.70;;;4.90;;
35576;SDS011;21680;52.400;16.920;2023-02-22T13:53:38;17.00;;;5.00;;
35576;SDS011;21680;52.400;16.920;2023-02-22T13:56:19;16.00;;;5.00;;
35576;SDS011;21680;52.400;16.920;2023-02-22T13:58:48;20.50;;;5.10;;
35576;SDS011;21680;52.400;16.920;2023-02-22T14:01:38;16.60;;;5.00;;
35576;SDS011;21680;52.400;16.920;2023-02-22T14:06:50;19.00;;;5.10;;
35576;SDS011;21680;52.400;16.920;2023-02-22T14:09:16;17.00;;;5.20;;
35576;SDS011;21680;52.400;16.920;2023-02-22T14:15:07;18.30;;;5.60;;
35576;SDS011;21680;52.400;16.920;2023-02-22T14:22:43;21.30;;;6.00;;
35576;SDS011;21680;52.400;16.920;2023-02-22T14:25:32;12.90;;;5.20;;
35576;SDS011;21680;52.400;16.920;2023-02-22T14:30:30;12.10;;;4.30;;
35576;SDS011;21680;52.400;16.920;2023-02-22T14:32:57;21.20;;;5.30;;
35576;SDS011;21680;52.400;16.920;2023-02-22T14:35:25;13.60;;;4.50;;
35576;SDS011;21680;52.400;16.920;2023-02-22T14:38:05;16.80;;;4.80;;
35576;SDS011;21680;52.400;16.920;2023-02-22T14:40:42;15.30;;;4.60;;
35576;SDS011;21680;52.400;16.920;2023-02-22T14:43:17;21.10;;;6.60;;
35576;SDS011;21680;52.400;16.920;2023-02-22T14:53:29;16.80;;;4.10;;
35576;SDS011;21680;52.400;16.920;2023-02-22T14:56:05;11.90;;;3.70;;
35576;SDS011;21680;52.400;16.920;2023-02-22T14:58:37;12.70;;;4.80;;
35576;SDS011;21680;52.400;16.920;2023-02-22T15:03:54;17.40;;;5.70;;
35576;SDS011;21680;52.400;16.920;2023-02-22T15:06:23;10.70;;;4.20;;
35576;SDS011;21680;52.400;16.920;2023-02-22T15:09:06;15.80;;;5.50;;
35576;SDS011;21680;52.400;16.920;2023-02-22T15:11:35;19.90;;;4.80;;
35576;SDS011;21680;52.400;16.920;2023-02-22T15:14:00;10.20;;;4.00;;
35576;SDS011;21680;52.400;16.920;2023-02-22T15:16:30;9.70;;;4.40;;
35576;SDS011;21680;52.400;16.920;2023-02-22T15:18:58;18.90;;;5.40;;
35576;SDS011;21680;52.400;16.920;2023-02-22T15:21:28;28.80;;;8.40;;
35576;SDS011;21680;52.400;16.920;2023-02-22T15:23:58;20.20;;;5.20;;
35576;SDS011;21680;52.400;16.920;2023-02-22T15:26:30;22.10;;;6.00;;
35576;SDS011;21680;52.400;16.920;2023-02-22T15:29:14;14.40;;;5.00;;
35576;SDS011;21680;52.400;16.920;2023-02-22T15:31:43;11.20;;;4.10;;
35576;SDS011;21680;52.400;16.920;2023-02-22T15:36:39;28.00;;;9.30;;
35576;SDS011;21680;52.400;16.920;2023-02-22T15:39:15;31.50;;;10.50;;
35576;SDS011;21680;52.400;16.920;2023-02-22T15:44:38;22.70;;;7.80;;
35576;SDS011;21680;52.400;16.920;2023-02-22T15:47:05;12.90;;;5.90;;
35576;SDS011;21680;52.400;16.920;2023-02-22T15:49:35;14.80;;;5.40;;
35576;SDS011;21680;52.400;16.920;2023-02-22T15:52:06;18.70;;;6.40;;
35576;SDS011;21680;52.400;16.920;2023-02-22T15:54:40;15.70;;;6.50;;
35576;SDS011;21680;52.400;16.920;2023-02-22T15:57:09;13.30;;;5.60;;
35576;SDS011;21680;52.400;16.920;2023-02-22T15:59:40;14.70;;;5.80;;
35576;SDS011;21680;52.400;16.920;2023-02-22T16:02:14;14.40;;;6.40;;
35576;SDS011;21680;52.400;16.920;2023-02-22T16:04:47;17.20;;;6.90;;
35576;SDS011;21680;52.400;16.920;2023-02-22T16:07:13;13.40;;;5.90;;
35576;SDS011;21680;52.400;16.920;2023-02-22T16:09:48;18.10;;;6.00;;
35576;SDS011;21680;52.400;16.920;2023-02-22T16:22:41;17.00;;;7.00;;
35576;SDS011;21680;52.400;16.920;2023-02-22T16:27:46;28.90;;;10.90;;
35576;SDS011;21680;52.400;16.920;2023-02-22T16:32:46;49.00;;;12.80;;
35576;SDS011;21680;52.400;16.920;2023-02-22T16:35:13;28.40;;;11.60;;
35576;SDS011;21680;52.400;16.920;2023-02-22T16:37:49;34.40;;;10.00;;
35576;SDS011;21680;52.400;16.920;2023-02-22T16:40:32;28.30;;;10.40;;
35576;SDS011;21680;52.400;16.920;2023-02-22T16:43:00;26.80;;;10.00;;
35576;SDS011;21680;52.400;16.920;2023-02-22T16:45:28;25.40;;;10.30;;
35576;SDS011;21680;52.400;16.920;2023-02-22T16:47:53;28.10;;;10.50;;
35576;SDS011;21680;52.400;16.920;2023-02-22T16:50:20;29.60;;;9.90;;
35576;SDS011;21680;52.400;16.920;2023-02-22T16:52:46;29.60;;;9.80;;
35576;SDS011;21680;52.400;16.920;2023-02-22T16:55:12;30.70;;;10.70;;
35576;SDS011;21680;52.400;16.920;2023-02-22T16:57:40;29.30;;;9.50;;
35576;SDS011;21680;52.400;16.920;2023-02-22T17:00:10;30.70;;;11.20;;
35576;SDS011;21680;52.400;16.920;2023-02-22T17:02:41;33.00;;;11.40;;
35576;SDS011;21680;52.400;16.920;2023-02-22T17:05:07;39.80;;;13.10;;
35576;SDS011;21680;52.400;16.920;2023-02-22T17:07:36;28.30;;;11.40;;
35576;SDS011;21680;52.400;16.920;2023-02-22T17:10:04;38.10;;;13.20;;
35576;SDS011;21680;52.400;16.920;2023-02-22T17:12:30;32.20;;;13.40;;